sensor_id;sensor_type;location;lat;lon;timestamp;P1;durP1;ratioP1;P2;durP2;ratioP2
73823;SDS011;62154;54.914;73.444;2023-12-20T00:02:25;147.50;;;35.08;;
73823;SDS011;62154;54.914;73.444;2023-12-20T00:04:53;53.03;;;15.60;;
73823;SDS011;62154;54.914;73.444;2023-12-20T00:07:20;43.10;;;12.30;;
73823;SDS011;62154;54.914;73.444;2023-12-20T00:09:47;29.95;;;10.80;;
73823;SDS011;62154;54.914;73.444;2023-12-20T00:12:15;29.02;;;9.07;;
73823;SDS011;62154;54.914;73.444;2023-12-20T00:14:43;38.42;;;10.13;;
73823;SDS011;62154;54.914;73.444;2023-12-20T00:17:10;56.85;;;12.10;;
73823;SDS011;62154;54.914;73.444;2023-12-20T00:19:38;31.38;;;9.85;;
73823;SDS011;62154;54.914;73.444;2023-12-20T00:22:06;39.33;;;9.52;;
73823;SDS011;62154;54.914;73.444;2023-12-20T00:24:36;51.55;;;13.43;;
73823;SDS011;62154;54.914;73.444;2023-12-20T00:27:03;39.75;;;10.38;;
73823;SDS011;62154;54.914;73.444;2023-12-20T00:29:31;44.35;;;10.73;;
73823;SDS011;62154;54.914;73.444;2023-12-20T00:31:58;46.30;;;14.02;;
73823;SDS011;62154;54.914;73.444;2023-12-20T00:34:26;46.00;;;9.73;;
73823;SDS011;62154;54.914;73.444;2023-12-20T00:36:53;49.50;;;12.13;;
73823;SDS011;62154;54.914;73.444;2023-12-20T00:39:21;47.55;;;11.75;;
73823;SDS011;62154;54.914;73.444;2023-12-20T00:41:49;51.25;;;13.95;;
73823;SDS011;62154;54.914;73.444;2023-12-20T00:44:18;77.90;;;18.38;;
73823;SDS011;62154;54.914;73.444;2023-12-20T00:46:46;49.30;;;16.15;;
73823;SDS011;62154;54.914;73.444;2023-12-20T00:49:14;53.63;;;14.05;;
73823;SDS011;62154;54.914;73.444;2023-12-20T00:51:41;64.32;;;17.98;;
73823;SDS011;62154;54.914;73.444;2023-12-20T00:54:09;89.38;;;21.35;;
73823;SDS011;62154;54.914;73.444;2023-12-20T00:56:36;58.10;;;16.67;;
73823;SDS011;62154;54.914;73.444;2023-12-20T00:59:04;60.92;;;20.17;;
73823;SDS011;62154;54.914;73.444;2023-12-20T01:01:31;49.95;;;17.75;;
73823;SDS011;62154;54.914;73.444;2023-12-20T01:04:02;76.20;;;27.30;;
73823;SDS011;62154;54.914;73.444;2023-12-20T01:06:30;177.68;;;69.07;;
73823;SDS011;62154;54.914;73.444;2023-12-20T01:08:58;103.85;;;38.28;;
73823;SDS011;62154;54.914;73.444;2023-12-20T01:11:25;69.63;;;23.38;;
73823;SDS011;62154;54.914;73.444;2023-12-20T01:13:53;58.33;;;28.23;;
73823;SDS011;62154;54.914;73.444;2023-12-20T01:16:21;56.03;;;22.45;;
73823;SDS011;62154;54.914;73.444;2023-12-20T01:18:49;49.80;;;14.02;;
73823;SDS011;62154;54.914;73.444;2023-12-20T01:21:17;45.08;;;17.33;;
73823;SDS011;62154;54.914;73.444;2023-12-20T01:23:44;29.90;;;11.57;;
73823;SDS011;62154;54.914;73.444;2023-12-20T01:26:12;53.13;;;19.20;;
73823;SDS011;62154;54.914;73.444;2023-12-20T01:28:39;38.03;;;14.70;;
73823;SDS011;62154;54.914;73.444;2023-12-20T01:31:07;43.88;;;15.52;;
73823;SDS011;62154;54.914;73.444;2023-12-20T01:33:35;36.50;;;13.15;;
73823;SDS011;62154;54.914;73.444;2023-12-20T01:36:03;201.55;;;83.70;;
73823;SDS011;62154;54.914;73.444;2023-12-20T01:38:31;121.00;;;45.47;;
73823;SDS011;62154;54.914;73.444;2023-12-20T01:40:59;101.38;;;39.83;;
73823;SDS011;62154;54.914;73.444;2023-12-20T01:43:26;62.88;;;29.25;;
73823;SDS011;62154;54.914;73.444;2023-12-20T01:45:54;35.20;;;10.77;;
73823;SDS011;62154;54.914;73.444;2023-12-20T01:48:24;39.00;;;11.18;;
73823;SDS011;62154;54.914;73.444;2023-12-20T01:50:52;24.42;;;9.20;;
73823;SDS011;62154;54.914;73.444;2023-12-20T01:53:21;36.35;;;10.32;;
73823;SDS011;62154;54.914;73.444;2023-12-20T01:55:52;74.50;;;22.27;;
73823;SDS011;62154;54.914;73.444;2023-12-20T01:58:22;37.60;;;18.80;;
73823;SDS011;62154;54.914;73.444;2023-12-20T02:00:50;51.63;;;21.75;;
73823;SDS011;62154;54.914;73.444;2023-12-20T02:03:18;57.35;;;17.30;;
73823;SDS011;62154;54.914;73.444;2023-12-20T02:05:46;31.65;;;10.13;;
73823;SDS011;62154;54.914;73.444;2023-12-20T02:08:15;32.22;;;9.48;;
73823;SDS011;62154;54.914;73.444;2023-12-20T02:10:43;27.38;;;9.52;;
73823;SDS011;62154;54.914;73.444;2023-12-20T02:13:10;35.20;;;11.75;;
73823;SDS011;62154;54.914;73.444;2023-12-20T02:15:38;89.65;;;23.73;;
73823;SDS011;62154;54.914;73.444;2023-12-20T02:18:08;41.85;;;17.45;;
73823;SDS011;62154;54.914;73.444;2023-12-20T02:20:36;35.92;;;13.85;;
73823;SDS011;62154;54.914;73.444;2023-12-20T02:23:03;23.02;;;9.20;;
73823;SDS011;62154;54.914;73.444;2023-12-20T02:25:31;24.73;;;8.52;;
73823;SDS011;62154;54.914;73.444;2023-12-20T02:27:58;23.25;;;7.72;;
73823;SDS011;62154;54.914;73.444;2023-12-20T02:30:26;26.25;;;6.82;;
73823;SDS011;62154;54.914;73.444;2023-12-20T02:32:54;37.75;;;12.10;;
73823;SDS011;62154;54.914;73.444;2023-12-20T02:35:22;34.38;;;12.30;;
73823;SDS011;62154;54.914;73.444;2023-12-20T02:37:50;27.52;;;7.90;;
73823;SDS011;62154;54.914;73.444;2023-12-20T02:40:17;25.88;;;9.07;;
73823;SDS011;62154;54.914;73.444;2023-12-20T02:42:45;30.65;;;9.50;;
73823;SDS011;62154;54.914;73.444;2023-12-20T02:45:12;36.65;;;12.30;;
73823;SDS011;62154;54.914;73.444;2023-12-20T02:47:54;45.95;;;13.90;;
73823;SDS011;62154;54.914;73.444;2023-12-20T02:50:21;35.17;;;9.98;;
73823;SDS011;62154;54.914;73.444;2023-12-20T02:52:49;52.28;;;16.92;;
73823;SDS011;62154;54.914;73.444;2023-12-20T02:55:17;58.45;;;18.13;;
73823;SDS011;62154;54.914;73.444;2023-12-20T02:57:44;40.88;;;14.55;;
73823;SDS011;62154;54.914;73.444;2023-12-20T03:00:12;34.08;;;10.55;;
73823;SDS011;62154;54.914;73.444;2023-12-20T03:02:40;43.25;;;12.63;;
73823;SDS011;62154;54.914;73.444;2023-12-20T03:05:08;35.45;;;9.93;;
73823;SDS011;62154;54.914;73.444;2023-12-20T03:07:36;33.00;;;11.35;;
73823;SDS011;62154;54.914;73.444;2023-12-20T03:10:05;28.65;;;11.07;;
73823;SDS011;62154;54.914;73.444;2023-12-20T03:12:34;20.20;;;7.88;;
73823;SDS011;62154;54.914;73.444;2023-12-20T03:15:02;24.60;;;10.95;;
73823;SDS011;62154;54.914;73.444;2023-12-20T03:17:31;37.38;;;13.45;;
73823;SDS011;62154;54.914;73.444;2023-12-20T03:19:58;63.58;;;24.75;;
73823;SDS011;62154;54.914;73.444;2023-12-20T03:22:26;56.00;;;22.90;;
73823;SDS011;62154;54.914;73.444;2023-12-20T03:24:53;35.85;;;16.02;;
73823;SDS011;62154;54.914;73.444;2023-12-20T03:27:21;21.65;;;9.23;;
73823;SDS011;62154;54.914;73.444;2023-12-20T03:29:49;31.85;;;12.15;;
73823;SDS011;62154;54.914;73.444;2023-12-20T03:32:16;31.88;;;9.95;;
73823;SDS011;62154;54.914;73.444;2023-12-20T03:34:44;14.13;;;5.80;;
73823;SDS011;62154;54.914;73.444;2023-12-20T03:37:11;25.83;;;9.10;;
73823;SDS011;62154;54.914;73.444;2023-12-20T03:39:39;18.80;;;8.52;;
73823;SDS011;62154;54.914;73.444;2023-12-20T03:42:06;26.25;;;9.60;;
73823;SDS011;62154;54.914;73.444;2023-12-20T03:44:34;31.67;;;13.38;;
73823;SDS011;62154;54.914;73.444;2023-12-20T03:47:01;38.67;;;18.65;;
73823;SDS011;62154;54.914;73.444;2023-12-20T03:49:29;36.35;;;16.98;;
73823;SDS011;62154;54.914;73.444;2023-12-20T03:51:56;43.53;;;19.30;;
73823;SDS011;62154;54.914;73.444;2023-12-20T03:54:24;47.53;;;19.05;;
73823;SDS011;62154;54.914;73.444;2023-12-20T03:56:52;39.83;;;15.00;;
73823;SDS011;62154;54.914;73.444;2023-12-20T03:59:19;73.32;;;28.02;;
73823;SDS011;62154;54.914;73.444;2023-12-20T04:01:47;45.58;;;17.60;;
73823;SDS011;62154;54.914;73.444;2023-12-20T04:04:14;52.60;;;22.73;;
73823;SDS011;62154;54.914;73.444;2023-12-20T04:06:41;30.05;;;15.43;;
73823;SDS011;62154;54.914;73.444;2023-12-20T04:09:09;40.35;;;16.30;;
73823;SDS011;62154;54.914;73.444;2023-12-20T04:11:37;32.95;;;13.55;;
73823;SDS011;62154;54.914;73.444;2023-12-20T04:14:05;25.15;;;9.40;;
73823;SDS011;62154;54.914;73.444;2023-12-20T04:16:34;18.07;;;8.07;;
73823;SDS011;62154;54.914;73.444;2023-12-20T04:19:01;18.77;;;7.63;;
73823;SDS011;62154;54.914;73.444;2023-12-20T04:21:32;20.48;;;7.88;;
73823;SDS011;62154;54.914;73.444;2023-12-20T04:24:05;20.15;;;10.25;;
73823;SDS011;62154;54.914;73.444;2023-12-20T04:26:33;18.97;;;8.17;;
73823;SDS011;62154;54.914;73.444;2023-12-20T04:29:01;20.38;;;7.45;;
73823;SDS011;62154;54.914;73.444;2023-12-20T04:31:29;17.70;;;7.72;;
73823;SDS011;62154;54.914;73.444;2023-12-20T04:33:56;17.10;;;7.07;;
73823;SDS011;62154;54.914;73.444;2023-12-20T04:36:24;19.00;;;6.70;;
73823;SDS011;62154;54.914;73.444;2023-12-20T04:38:53;13.25;;;7.10;;
73823;SDS011;62154;54.914;73.444;2023-12-20T04:41:21;19.73;;;6.97;;
73823;SDS011;62154;54.914;73.444;2023-12-20T04:43:48;74.07;;;26.50;;
73823;SDS011;62154;54.914;73.444;2023-12-20T04:46:16;68.13;;;24.98;;
73823;SDS011;62154;54.914;73.444;2023-12-20T04:48:44;98.22;;;44.17;;
73823;SDS011;62154;54.914;73.444;2023-12-20T04:51:11;140.48;;;66.25;;
73823;SDS011;62154;54.914;73.444;2023-12-20T04:53:40;38.05;;;19.65;;
73823;SDS011;62154;54.914;73.444;2023-12-20T04:56:07;20.95;;;9.80;;
73823;SDS011;62154;54.914;73.444;2023-12-20T04:58:35;23.58;;;10.20;;
73823;SDS011;62154;54.914;73.444;2023-12-20T05:01:03;36.97;;;17.48;;
73823;SDS011;62154;54.914;73.444;2023-12-20T05:03:32;76.65;;;28.17;;
73823;SDS011;62154;54.914;73.444;2023-12-20T05:06:00;70.85;;;24.63;;
73823;SDS011;62154;54.914;73.444;2023-12-20T05:08:27;25.75;;;11.50;;
73823;SDS011;62154;54.914;73.444;2023-12-20T05:10:57;32.58;;;13.30;;
73823;SDS011;62154;54.914;73.444;2023-12-20T05:13:25;38.88;;;16.77;;
73823;SDS011;62154;54.914;73.444;2023-12-20T05:15:52;43.08;;;15.82;;
73823;SDS011;62154;54.914;73.444;2023-12-20T05:18:22;33.75;;;15.05;;
73823;SDS011;62154;54.914;73.444;2023-12-20T05:20:50;65.90;;;23.48;;
73823;SDS011;62154;54.914;73.444;2023-12-20T05:23:18;41.30;;;15.90;;
73823;SDS011;62154;54.914;73.444;2023-12-20T05:25:46;32.08;;;11.82;;
73823;SDS011;62154;54.914;73.444;2023-12-20T05:28:15;31.10;;;11.00;;
73823;SDS011;62154;54.914;73.444;2023-12-20T05:30:43;25.73;;;8.82;;
73823;SDS011;62154;54.914;73.444;2023-12-20T05:33:10;24.20;;;8.70;;
73823;SDS011;62154;54.914;73.444;2023-12-20T05:35:38;18.65;;;7.80;;
73823;SDS011;62154;54.914;73.444;2023-12-20T05:38:05;17.55;;;8.07;;
73823;SDS011;62154;54.914;73.444;2023-12-20T05:40:32;14.38;;;6.65;;
73823;SDS011;62154;54.914;73.444;2023-12-20T05:43:00;14.63;;;6.13;;
73823;SDS011;62154;54.914;73.444;2023-12-20T05:45:29;19.15;;;6.85;;
73823;SDS011;62154;54.914;73.444;2023-12-20T05:47:57;10.95;;;5.72;;
73823;SDS011;62154;54.914;73.444;2023-12-20T05:50:25;14.68;;;5.45;;
73823;SDS011;62154;54.914;73.444;2023-12-20T05:52:52;15.57;;;6.53;;
73823;SDS011;62154;54.914;73.444;2023-12-20T05:55:20;18.38;;;6.15;;
73823;SDS011;62154;54.914;73.444;2023-12-20T05:57:51;10.63;;;6.07;;
73823;SDS011;62154;54.914;73.444;2023-12-20T06:00:18;18.40;;;7.28;;
73823;SDS011;62154;54.914;73.444;2023-12-20T06:02:46;35.72;;;13.38;;
73823;SDS011;62154;54.914;73.444;2023-12-20T06:05:19;18.05;;;7.53;;
73823;SDS011;62154;54.914;73.444;2023-12-20T06:07:46;23.60;;;9.32;;
73823;SDS011;62154;54.914;73.444;2023-12-20T06:10:14;25.45;;;10.98;;
73823;SDS011;62154;54.914;73.444;2023-12-20T06:12:42;13.20;;;5.85;;
73823;SDS011;62154;54.914;73.444;2023-12-20T06:15:09;17.20;;;6.70;;
73823;SDS011;62154;54.914;73.444;2023-12-20T06:17:39;17.23;;;7.47;;
73823;SDS011;62154;54.914;73.444;2023-12-20T06:20:07;28.77;;;10.30;;
73823;SDS011;62154;54.914;73.444;2023-12-20T06:22:35;24.40;;;6.97;;
73823;SDS011;62154;54.914;73.444;2023-12-20T06:25:03;41.25;;;15.23;;
73823;SDS011;62154;54.914;73.444;2023-12-20T06:27:34;18.10;;;7.67;;
73823;SDS011;62154;54.914;73.444;2023-12-20T06:30:04;15.05;;;5.68;;
73823;SDS011;62154;54.914;73.444;2023-12-20T06:32:32;19.98;;;7.90;;
73823;SDS011;62154;54.914;73.444;2023-12-20T06:35:01;13.05;;;6.20;;
73823;SDS011;62154;54.914;73.444;2023-12-20T06:37:29;15.07;;;6.57;;
73823;SDS011;62154;54.914;73.444;2023-12-20T06:39:59;11.00;;;5.80;;
73823;SDS011;62154;54.914;73.444;2023-12-20T06:42:30;15.60;;;6.93;;
73823;SDS011;62154;54.914;73.444;2023-12-20T06:44:58;12.35;;;5.20;;
73823;SDS011;62154;54.914;73.444;2023-12-20T06:47:25;15.10;;;5.55;;
73823;SDS011;62154;54.914;73.444;2023-12-20T06:49:53;11.98;;;5.53;;
73823;SDS011;62154;54.914;73.444;2023-12-20T06:52:20;12.05;;;4.60;;
73823;SDS011;62154;54.914;73.444;2023-12-20T06:54:48;15.98;;;5.90;;
73823;SDS011;62154;54.914;73.444;2023-12-20T06:57:16;14.77;;;6.07;;
73823;SDS011;62154;54.914;73.444;2023-12-20T06:59:43;18.02;;;7.63;;
73823;SDS011;62154;54.914;73.444;2023-12-20T07:02:13;34.53;;;12.85;;
73823;SDS011;62154;54.914;73.444;2023-12-20T07:04:41;14.70;;;5.88;;
73823;SDS011;62154;54.914;73.444;2023-12-20T07:07:09;15.88;;;6.80;;
73823;SDS011;62154;54.914;73.444;2023-12-20T07:09:36;24.23;;;9.60;;
73823;SDS011;62154;54.914;73.444;2023-12-20T07:12:05;38.17;;;13.30;;
73823;SDS011;62154;54.914;73.444;2023-12-20T07:14:32;21.02;;;9.13;;
73823;SDS011;62154;54.914;73.444;2023-12-20T07:17:03;18.35;;;8.05;;
73823;SDS011;62154;54.914;73.444;2023-12-20T07:19:30;13.48;;;6.70;;
73823;SDS011;62154;54.914;73.444;2023-12-20T07:21:59;21.08;;;8.23;;
73823;SDS011;62154;54.914;73.444;2023-12-20T07:24:26;14.00;;;6.70;;
73823;SDS011;62154;54.914;73.444;2023-12-20T07:26:53;74.50;;;22.02;;
73823;SDS011;62154;54.914;73.444;2023-12-20T07:29:21;25.77;;;9.98;;
73823;SDS011;62154;54.914;73.444;2023-12-20T07:31:48;69.90;;;21.95;;
73823;SDS011;62154;54.914;73.444;2023-12-20T07:34:16;68.40;;;24.67;;
73823;SDS011;62154;54.914;73.444;2023-12-20T07:36:43;38.83;;;13.40;;
73823;SDS011;62154;54.914;73.444;2023-12-20T07:39:11;26.15;;;10.40;;
73823;SDS011;62154;54.914;73.444;2023-12-20T07:41:39;50.28;;;18.42;;
73823;SDS011;62154;54.914;73.444;2023-12-20T07:44:06;33.55;;;13.27;;
73823;SDS011;62154;54.914;73.444;2023-12-20T07:46:34;18.25;;;7.70;;
73823;SDS011;62154;54.914;73.444;2023-12-20T07:49:01;15.45;;;6.38;;
73823;SDS011;62154;54.914;73.444;2023-12-20T07:51:29;26.48;;;9.65;;
73823;SDS011;62154;54.914;73.444;2023-12-20T07:53:56;15.82;;;7.57;;
73823;SDS011;62154;54.914;73.444;2023-12-20T07:56:23;16.17;;;6.88;;
73823;SDS011;62154;54.914;73.444;2023-12-20T07:58:51;20.20;;;7.55;;
73823;SDS011;62154;54.914;73.444;2023-12-20T08:01:18;18.85;;;8.35;;
73823;SDS011;62154;54.914;73.444;2023-12-20T08:03:46;13.77;;;6.72;;
73823;SDS011;62154;54.914;73.444;2023-12-20T08:06:15;15.82;;;7.32;;
73823;SDS011;62154;54.914;73.444;2023-12-20T08:08:43;11.05;;;6.32;;
73823;SDS011;62154;54.914;73.444;2023-12-20T08:11:11;27.13;;;10.48;;
73823;SDS011;62154;54.914;73.444;2023-12-20T08:13:38;19.67;;;8.18;;
73823;SDS011;62154;54.914;73.444;2023-12-20T08:16:05;16.30;;;7.20;;
73823;SDS011;62154;54.914;73.444;2023-12-20T08:18:34;15.38;;;5.80;;
73823;SDS011;62154;54.914;73.444;2023-12-20T08:21:02;17.83;;;7.53;;
73823;SDS011;62154;54.914;73.444;2023-12-20T08:23:29;14.88;;;5.78;;
73823;SDS011;62154;54.914;73.444;2023-12-20T08:25:59;11.75;;;6.07;;
73823;SDS011;62154;54.914;73.444;2023-12-20T08:28:31;14.40;;;6.70;;
73823;SDS011;62154;54.914;73.444;2023-12-20T08:30:59;10.60;;;5.00;;
73823;SDS011;62154;54.914;73.444;2023-12-20T08:33:27;11.65;;;6.28;;
73823;SDS011;62154;54.914;73.444;2023-12-20T08:35:55;12.90;;;4.80;;
73823;SDS011;62154;54.914;73.444;2023-12-20T08:38:22;11.38;;;4.78;;
73823;SDS011;62154;54.914;73.444;2023-12-20T08:40:49;10.02;;;4.72;;
73823;SDS011;62154;54.914;73.444;2023-12-20T08:43:17;13.15;;;5.90;;
73823;SDS011;62154;54.914;73.444;2023-12-20T08:45:45;14.43;;;6.00;;
73823;SDS011;62154;54.914;73.444;2023-12-20T08:48:12;21.90;;;11.55;;
73823;SDS011;62154;54.914;73.444;2023-12-20T08:50:42;18.23;;;9.02;;
73823;SDS011;62154;54.914;73.444;2023-12-20T08:53:10;16.95;;;7.20;;
73823;SDS011;62154;54.914;73.444;2023-12-20T08:55:38;11.45;;;5.10;;
73823;SDS011;62154;54.914;73.444;2023-12-20T08:58:06;13.27;;;6.00;;
73823;SDS011;62154;54.914;73.444;2023-12-20T09:00:34;21.40;;;9.95;;
73823;SDS011;62154;54.914;73.444;2023-12-20T09:03:02;27.83;;;10.27;;
73823;SDS011;62154;54.914;73.444;2023-12-20T09:05:29;64.55;;;24.25;;
73823;SDS011;62154;54.914;73.444;2023-12-20T09:07:57;41.10;;;16.67;;
73823;SDS011;62154;54.914;73.444;2023-12-20T09:10:25;43.15;;;21.50;;
73823;SDS011;62154;54.914;73.444;2023-12-20T09:12:52;37.83;;;16.45;;
73823;SDS011;62154;54.914;73.444;2023-12-20T09:15:24;43.72;;;19.85;;
73823;SDS011;62154;54.914;73.444;2023-12-20T09:17:53;58.67;;;28.48;;
73823;SDS011;62154;54.914;73.444;2023-12-20T09:20:21;43.88;;;20.85;;
73823;SDS011;62154;54.914;73.444;2023-12-20T09:22:50;21.67;;;11.70;;
73823;SDS011;62154;54.914;73.444;2023-12-20T09:25:17;17.33;;;8.52;;
73823;SDS011;62154;54.914;73.444;2023-12-20T09:27:45;14.85;;;7.22;;
73823;SDS011;62154;54.914;73.444;2023-12-20T09:30:25;34.50;;;14.95;;
73823;SDS011;62154;54.914;73.444;2023-12-20T09:32:54;12.88;;;7.07;;
73823;SDS011;62154;54.914;73.444;2023-12-20T09:35:24;74.43;;;35.08;;
73823;SDS011;62154;54.914;73.444;2023-12-20T09:37:52;68.32;;;36.60;;
73823;SDS011;62154;54.914;73.444;2023-12-20T09:40:20;61.75;;;21.77;;
73823;SDS011;62154;54.914;73.444;2023-12-20T09:43:11;36.45;;;20.88;;
73823;SDS011;62154;54.914;73.444;2023-12-20T09:45:45;35.03;;;20.25;;
73823;SDS011;62154;54.914;73.444;2023-12-20T09:48:13;27.02;;;11.82;;
73823;SDS011;62154;54.914;73.444;2023-12-20T09:50:46;32.40;;;13.27;;
73823;SDS011;62154;54.914;73.444;2023-12-20T09:53:14;13.68;;;7.07;;
73823;SDS011;62154;54.914;73.444;2023-12-20T09:55:46;19.38;;;6.80;;
73823;SDS011;62154;54.914;73.444;2023-12-20T09:58:14;15.73;;;7.35;;
73823;SDS011;62154;54.914;73.444;2023-12-20T10:00:41;28.13;;;12.50;;
73823;SDS011;62154;54.914;73.444;2023-12-20T10:03:09;23.45;;;11.18;;
73823;SDS011;62154;54.914;73.444;2023-12-20T10:05:38;19.25;;;9.40;;
73823;SDS011;62154;54.914;73.444;2023-12-20T10:08:09;256.85;;;86.65;;
73823;SDS011;62154;54.914;73.444;2023-12-20T10:10:37;330.90;;;121.90;;
73823;SDS011;62154;54.914;73.444;2023-12-20T10:13:05;224.18;;;81.03;;
73823;SDS011;62154;54.914;73.444;2023-12-20T10:15:35;281.50;;;104.45;;
73823;SDS011;62154;54.914;73.444;2023-12-20T10:18:04;144.57;;;52.15;;
73823;SDS011;62154;54.914;73.444;2023-12-20T10:20:32;94.93;;;37.42;;
73823;SDS011;62154;54.914;73.444;2023-12-20T10:23:00;116.25;;;49.88;;
73823;SDS011;62154;54.914;73.444;2023-12-20T10:25:28;49.28;;;23.08;;
73823;SDS011;62154;54.914;73.444;2023-12-20T10:28:09;66.53;;;29.23;;
73823;SDS011;62154;54.914;73.444;2023-12-20T10:30:38;60.53;;;28.58;;
73823;SDS011;62154;54.914;73.444;2023-12-20T10:33:07;36.38;;;17.77;;
73823;SDS011;62154;54.914;73.444;2023-12-20T10:35:37;27.40;;;15.35;;
73823;SDS011;62154;54.914;73.444;2023-12-20T10:38:06;27.23;;;13.57;;
73823;SDS011;62154;54.914;73.444;2023-12-20T10:40:34;32.50;;;16.30;;
73823;SDS011;62154;54.914;73.444;2023-12-20T10:43:03;27.48;;;15.63;;
73823;SDS011;62154;54.914;73.444;2023-12-20T10:45:32;27.73;;;13.65;;
73823;SDS011;62154;54.914;73.444;2023-12-20T10:47:59;20.67;;;10.50;;
73823;SDS011;62154;54.914;73.444;2023-12-20T10:50:29;14.77;;;8.48;;
73823;SDS011;62154;54.914;73.444;2023-12-20T10:52:58;17.75;;;7.55;;
73823;SDS011;62154;54.914;73.444;2023-12-20T10:55:25;27.15;;;11.02;;
73823;SDS011;62154;54.914;73.444;2023-12-20T10:58:07;25.83;;;11.38;;
73823;SDS011;62154;54.914;73.444;2023-12-20T11:00:37;31.88;;;13.98;;
73823;SDS011;62154;54.914;73.444;2023-12-20T11:03:08;24.23;;;9.25;;
73823;SDS011;62154;54.914;73.444;2023-12-20T11:05:46;16.15;;;7.53;;
73823;SDS011;62154;54.914;73.444;2023-12-20T11:11:57;24.95;;;9.77;;
73823;SDS011;62154;54.914;73.444;2023-12-20T11:14:49;29.98;;;11.73;;
73823;SDS011;62154;54.914;73.444;2023-12-20T11:17:19;16.40;;;7.28;;
73823;SDS011;62154;54.914;73.444;2023-12-20T11:22:32;41.60;;;14.32;;
73823;SDS011;62154;54.914;73.444;2023-12-20T11:25:08;16.60;;;7.68;;
73823;SDS011;62154;54.914;73.444;2023-12-20T11:27:40;14.65;;;7.25;;
73823;SDS011;62154;54.914;73.444;2023-12-20T11:30:12;26.40;;;10.70;;
73823;SDS011;62154;54.914;73.444;2023-12-20T11:32:41;29.15;;;13.13;;
73823;SDS011;62154;54.914;73.444;2023-12-20T11:37:40;57.45;;;19.92;;
73823;SDS011;62154;54.914;73.444;2023-12-20T11:40:14;63.47;;;21.17;;
73823;SDS011;62154;54.914;73.444;2023-12-20T11:42:50;106.70;;;31.10;;
73823;SDS011;62154;54.914;73.444;2023-12-20T11:45:21;56.20;;;21.17;;
73823;SDS011;62154;54.914;73.444;2023-12-20T11:47:52;49.38;;;16.60;;
73823;SDS011;62154;54.914;73.444;2023-12-20T11:50:23;56.85;;;22.83;;
73823;SDS011;62154;54.914;73.444;2023-12-20T11:52:52;88.47;;;34.25;;
73823;SDS011;62154;54.914;73.444;2023-12-20T11:55:23;95.47;;;30.77;;
73823;SDS011;62154;54.914;73.444;2023-12-20T11:57:54;46.58;;;22.58;;
73823;SDS011;62154;54.914;73.444;2023-12-20T12:00:21;35.42;;;15.93;;
73823;SDS011;62154;54.914;73.444;2023-12-20T12:02:56;35.45;;;17.08;;
73823;SDS011;62154;54.914;73.444;2023-12-20T12:05:25;16.15;;;7.28;;
73823;SDS011;62154;54.914;73.444;2023-12-20T12:07:52;30.27;;;11.20;;
73823;SDS011;62154;54.914;73.444;2023-12-20T12:10:20;59.08;;;21.35;;
73823;SDS011;62154;54.914;73.444;2023-12-20T12:12:48;22.30;;;9.43;;
73823;SDS011;62154;54.914;73.444;2023-12-20T12:15:15;35.75;;;12.77;;
73823;SDS011;62154;54.914;73.444;2023-12-20T12:18:02;32.97;;;15.70;;
73823;SDS011;62154;54.914;73.444;2023-12-20T12:20:30;20.92;;;10.50;;
73823;SDS011;62154;54.914;73.444;2023-12-20T12:23:05;30.63;;;14.23;;
73823;SDS011;62154;54.914;73.444;2023-12-20T12:25:34;62.50;;;34.45;;
73823;SDS011;62154;54.914;73.444;2023-12-20T12:28:18;51.60;;;30.65;;
73823;SDS011;62154;54.914;73.444;2023-12-20T12:30:58;32.53;;;16.13;;
73823;SDS011;62154;54.914;73.444;2023-12-20T12:33:26;31.73;;;16.83;;
73823;SDS011;62154;54.914;73.444;2023-12-20T12:35:54;29.98;;;13.77;;
73823;SDS011;62154;54.914;73.444;2023-12-20T12:38:22;26.35;;;12.68;;
73823;SDS011;62154;54.914;73.444;2023-12-20T12:40:51;20.55;;;9.30;;
73823;SDS011;62154;54.914;73.444;2023-12-20T12:43:19;26.30;;;12.52;;
73823;SDS011;62154;54.914;73.444;2023-12-20T12:45:49;34.75;;;16.80;;
73823;SDS011;62154;54.914;73.444;2023-12-20T12:48:16;54.50;;;26.25;;
73823;SDS011;62154;54.914;73.444;2023-12-20T12:50:47;48.15;;;25.15;;
73823;SDS011;62154;54.914;73.444;2023-12-20T12:53:14;27.73;;;16.15;;
73823;SDS011;62154;54.914;73.444;2023-12-20T12:55:42;20.67;;;11.55;;
73823;SDS011;62154;54.914;73.444;2023-12-20T12:58:09;12.70;;;6.97;;
73823;SDS011;62154;54.914;73.444;2023-12-20T13:00:36;14.20;;;6.45;;
73823;SDS011;62154;54.914;73.444;2023-12-20T13:03:04;18.08;;;10.52;;
73823;SDS011;62154;54.914;73.444;2023-12-20T13:05:32;13.13;;;7.10;;
73823;SDS011;62154;54.914;73.444;2023-12-20T13:08:28;18.75;;;9.13;;
73823;SDS011;62154;54.914;73.444;2023-12-20T13:10:56;30.80;;;14.70;;
73823;SDS011;62154;54.914;73.444;2023-12-20T13:13:27;59.05;;;29.23;;
73823;SDS011;62154;54.914;73.444;2023-12-20T13:15:55;24.92;;;12.45;;
73823;SDS011;62154;54.914;73.444;2023-12-20T13:18:22;33.65;;;15.70;;
73823;SDS011;62154;54.914;73.444;2023-12-20T13:21:06;21.52;;;9.55;;
73823;SDS011;62154;54.914;73.444;2023-12-20T13:23:34;15.73;;;7.25;;
73823;SDS011;62154;54.914;73.444;2023-12-20T13:26:02;12.43;;;5.78;;
73823;SDS011;62154;54.914;73.444;2023-12-20T13:28:29;16.42;;;6.80;;
73823;SDS011;62154;54.914;73.444;2023-12-20T13:31:13;26.83;;;10.40;;
73823;SDS011;62154;54.914;73.444;2023-12-20T13:33:42;43.58;;;19.30;;
73823;SDS011;62154;54.914;73.444;2023-12-20T13:36:12;29.23;;;13.68;;
73823;SDS011;62154;54.914;73.444;2023-12-20T13:38:52;19.95;;;9.40;;
73823;SDS011;62154;54.914;73.444;2023-12-20T13:41:21;60.78;;;22.42;;
73823;SDS011;62154;54.914;73.444;2023-12-20T13:43:49;36.23;;;15.63;;
73823;SDS011;62154;54.914;73.444;2023-12-20T13:46:18;22.35;;;9.80;;
73823;SDS011;62154;54.914;73.444;2023-12-20T13:49:00;37.58;;;15.05;;
73823;SDS011;62154;54.914;73.444;2023-12-20T13:51:28;26.63;;;11.05;;
73823;SDS011;62154;54.914;73.444;2023-12-20T13:53:56;23.13;;;9.30;;
73823;SDS011;62154;54.914;73.444;2023-12-20T13:56:24;22.63;;;9.00;;
73823;SDS011;62154;54.914;73.444;2023-12-20T13:58:52;28.08;;;11.63;;
73823;SDS011;62154;54.914;73.444;2023-12-20T14:01:20;27.98;;;9.90;;
73823;SDS011;62154;54.914;73.444;2023-12-20T14:03:48;83.50;;;26.52;;
73823;SDS011;62154;54.914;73.444;2023-12-20T14:06:15;33.40;;;12.25;;
73823;SDS011;62154;54.914;73.444;2023-12-20T14:08:44;20.52;;;8.80;;
73823;SDS011;62154;54.914;73.444;2023-12-20T14:11:12;20.98;;;7.78;;
73823;SDS011;62154;54.914;73.444;2023-12-20T14:13:42;16.27;;;7.60;;
73823;SDS011;62154;54.914;73.444;2023-12-20T14:16:10;18.08;;;8.40;;
73823;SDS011;62154;54.914;73.444;2023-12-20T14:18:37;35.63;;;11.93;;
73823;SDS011;62154;54.914;73.444;2023-12-20T14:21:07;41.05;;;15.13;;
73823;SDS011;62154;54.914;73.444;2023-12-20T14:23:36;39.03;;;15.35;;
73823;SDS011;62154;54.914;73.444;2023-12-20T14:26:04;47.33;;;18.67;;
73823;SDS011;62154;54.914;73.444;2023-12-20T14:28:32;20.98;;;8.82;;
73823;SDS011;62154;54.914;73.444;2023-12-20T14:30:59;38.78;;;13.90;;
73823;SDS011;62154;54.914;73.444;2023-12-20T14:33:27;26.65;;;11.52;;